createdAt,value
2022-11-12T00:03:22.657Z,52.57
2022-11-12T00:08:15.174Z,52.6
2022-11-12T00:13:07.793Z,52.58
2022-11-12T00:18:00.250Z,52.61
2022-11-12T00:22:52.540Z,52.67
2022-11-12T00:27:45.071Z,52.61
2022-11-12T00:32:37.765Z,52.72
2022-11-12T00:37:30.384Z,52.62
2022-11-12T00:42:23.082Z,52.64
2022-11-12T00:47:15.719Z,52.63
2022-11-12T00:52:08.435Z,52.58
2022-11-12T00:57:01.057Z,52.56
2022-11-12T01:01:53.381Z,52.54
2022-11-12T01:06:46.088Z,52.52
2022-11-12T01:11:38.719Z,52.5
2022-11-12T01:16:31.223Z,52.56
2022-11-12T01:21:23.667Z,52.69
2022-11-12T01:26:16.110Z,52.64
2022-11-12T01:31:08.784Z,52.54
2022-11-12T01:40:53.853Z,52.5
2022-11-12T01:45:46.402Z,52.5
2022-11-12T01:50:39.187Z,52.5
2022-11-12T01:55:31.702Z,52.47
2022-11-12T02:00:24.283Z,52.51
2022-11-12T02:05:16.796Z,52.52
2022-11-12T02:10:09.146Z,52.58
2022-11-12T02:15:01.590Z,52.5
2022-11-12T02:19:54.101Z,52.51
2022-11-12T02:24:46.669Z,52.56
2022-11-12T02:29:39.250Z,52.57
2022-11-12T02:34:31.893Z,52.54
2022-11-12T02:39:24.627Z,52.55
2022-11-12T02:44:17.058Z,52.49
2022-11-12T02:49:09.692Z,52.46
2022-11-12T02:54:02.360Z,52.4
2022-11-12T02:58:54.973Z,52.41
2022-11-12T03:03:47.591Z,52.48
2022-11-12T03:08:40.277Z,52.53
2022-11-12T03:13:32.572Z,52.51
2022-11-12T03:18:25.504Z,52.58
2022-11-12T03:23:17.551Z,52.41
2022-11-12T03:28:10.269Z,52.38
2022-11-12T03:33:02.869Z,52.38
2022-11-12T03:37:55.225Z,52.31
2022-11-12T03:42:47.765Z,52.33
2022-11-12T03:47:40.472Z,52.32
2022-11-12T03:52:32.803Z,52.37
2022-11-12T03:57:25.599Z,52.35
2022-11-12T04:02:18.144Z,52.42
2022-11-12T04:07:10.751Z,52.43
2022-11-12T04:12:03.146Z,52.41
2022-11-12T04:16:55.453Z,52.52
2022-11-12T04:21:48.045Z,52.43
2022-11-12T04:26:40.777Z,52.33
2022-11-12T04:31:33.240Z,52.28
2022-11-12T04:36:25.729Z,52.37
2022-11-12T04:41:18.214Z,52.17
2022-11-12T04:46:10.850Z,52.13
2022-11-12T04:51:03.375Z,52.23
2022-11-12T04:55:55.847Z,52.33
2022-11-12T05:00:48.249Z,52.27
2022-11-12T05:05:40.922Z,52.3
2022-11-12T05:10:33.239Z,52
2022-11-12T05:15:25.837Z,51.75
2022-11-12T05:20:18.411Z,51.69
2022-11-12T05:25:11.144Z,51.58
2022-11-12T05:30:03.760Z,51.79
2022-11-12T05:34:56.330Z,51.75
2022-11-12T05:39:48.997Z,51.71
2022-11-12T05:44:41.732Z,51.61
2022-11-12T05:49:34.176Z,51.59
2022-11-12T05:54:26.977Z,51.47
2022-11-12T05:59:19.644Z,50.95
2022-11-12T06:04:12.429Z,50.62
2022-11-12T06:09:04.891Z,50.72
2022-11-12T06:13:59.481Z,50.71
2022-11-12T06:18:51.797Z,50.68
2022-11-12T06:23:44.605Z,50.61
2022-11-12T06:28:37.115Z,52.49
2022-11-12T06:33:29.938Z,50.34
2022-11-12T06:38:22.673Z,50.87
2022-11-12T06:43:15.452Z,49.89
2022-11-12T06:48:10.092Z,49.84
2022-11-12T06:57:54.679Z,49.55
2022-11-12T07:07:39.587Z,49.78
2022-11-12T07:12:32.334Z,49.42
2022-11-12T07:17:24.896Z,49.31
2022-11-12T07:22:17.916Z,49.57
2022-11-12T07:27:10.291Z,49
2022-11-12T07:32:03.014Z,49.08
2022-11-12T07:36:55.773Z,49.06
2022-11-12T07:41:48.491Z,49.56
2022-11-12T07:46:40.811Z,48.92
2022-11-12T07:51:33.688Z,48.92
2022-11-12T07:56:26.505Z,49.78
2022-11-12T08:01:19.602Z,48.93
2022-11-12T08:06:11.802Z,48.64
2022-11-12T08:11:04.389Z,51.17
2022-11-12T08:15:57.210Z,49.03
2022-11-12T08:20:46.997Z,48.72
2022-11-12T08:25:40.414Z,48.7
2022-11-12T08:30:32.868Z,48.56
2022-11-12T08:35:25.465Z,48.69
2022-11-12T08:40:18.310Z,48.57
2022-11-12T08:45:11.034Z,48.89
2022-11-12T08:50:03.454Z,48.9
2022-11-12T08:54:56.065Z,49.07
2022-11-12T08:59:48.934Z,49.26
2022-11-12T09:04:41.325Z,49.35
2022-11-12T09:09:33.792Z,49.47
2022-11-12T09:14:26.250Z,49.66
2022-11-12T09:19:19.029Z,49.74
2022-11-12T09:24:11.375Z,49.8
2022-11-12T09:29:04.046Z,49.91
2022-11-12T09:33:56.500Z,50.04
2022-11-12T09:38:49.338Z,50.05
2022-11-12T09:43:41.899Z,50.16
2022-11-12T09:48:34.450Z,50.16
2022-11-12T09:53:26.994Z,50.21
2022-11-12T09:58:19.665Z,50.3
2022-11-12T10:03:12.108Z,50.27
2022-11-12T10:08:04.449Z,50.31
2022-11-12T10:12:57.080Z,50.33
2022-11-12T10:17:49.985Z,50.21
2022-11-12T10:22:42.481Z,50.25
2022-11-12T10:27:35.350Z,50.32
2022-11-12T10:32:28.226Z,50.12
2022-11-12T10:37:21.247Z,50.08
2022-11-12T10:42:13.832Z,50.17
2022-11-12T10:47:06.297Z,50.07
2022-11-12T10:51:58.883Z,50.1
2022-11-12T10:56:55.414Z,50.16
2022-11-12T11:01:45.813Z,50.47
2022-11-12T11:06:36.357Z,50.32
2022-11-12T11:11:28.844Z,50.37
2022-11-12T11:16:21.306Z,50.42
2022-11-12T11:21:13.972Z,50.41
2022-11-12T11:26:06.623Z,50.49
2022-11-12T11:30:59.502Z,50.49
2022-11-12T11:35:52.446Z,50.6
2022-11-12T11:40:44.864Z,50.5
2022-11-12T11:45:37.408Z,50.46
2022-11-12T11:50:29.881Z,50.49
2022-11-12T11:55:22.740Z,50.49
2022-11-12T12:00:15.309Z,50.58
2022-11-12T12:05:08.022Z,50.47
2022-11-12T12:10:03.610Z,50.6
2022-11-12T12:14:53.436Z,50.57
2022-11-12T12:19:45.848Z,50.69
2022-11-12T12:24:37.905Z,50.58
2022-11-12T12:29:30.624Z,50.87
2022-11-12T12:34:23.440Z,50.85
2022-11-12T12:39:15.775Z,50.62
2022-11-12T12:44:08.568Z,50.44
2022-11-12T12:49:01.390Z,50.76
2022-11-12T12:53:54.220Z,50.79
2022-11-12T12:58:46.474Z,50.75
2022-11-12T13:03:39.177Z,50.63
2022-11-12T13:08:31.801Z,50.72
2022-11-12T13:13:29.084Z,50.86
2022-11-12T13:23:09.716Z,50.83
2022-11-12T13:28:02.478Z,50.8
2022-11-12T13:32:55.062Z,50.83
2022-11-12T13:42:39.984Z,50.68
2022-11-12T13:47:32.582Z,50.5
2022-11-12T13:52:25.448Z,50.55
2022-11-12T13:57:18.981Z,50.59
2022-11-12T14:02:11.283Z,50.6
2022-11-12T14:07:04.100Z,50.49
2022-11-12T14:11:56.881Z,50.61
2022-11-12T14:16:49.452Z,50.63
2022-11-12T14:21:41.970Z,50.59
2022-11-12T14:26:34.553Z,50.88
2022-11-12T14:31:27.324Z,51.57
2022-11-12T14:36:19.754Z,51.21
2022-11-12T14:41:12.394Z,51.58
2022-11-12T14:46:05.065Z,51.47
2022-11-12T14:50:57.749Z,51.38
2022-11-12T14:55:50.288Z,51.35
2022-11-12T15:00:43.221Z,51.29
2022-11-12T15:05:35.514Z,51.27
2022-11-12T15:10:28.351Z,51.34
2022-11-12T15:15:20.915Z,51.33
2022-11-12T15:20:13.485Z,51.36
2022-11-12T15:25:06.043Z,51.41
2022-11-12T15:29:58.817Z,51.37
2022-11-12T15:34:51.464Z,51.34
2022-11-12T15:39:43.930Z,51.3
2022-11-12T15:44:36.466Z,51.29
2022-11-12T15:49:29.255Z,51.28
2022-11-12T15:54:21.873Z,51.31
2022-11-12T15:59:14.535Z,51.21
2022-11-12T16:04:07.000Z,51.24
2022-11-12T16:08:59.725Z,51.29
2022-11-12T16:13:52.341Z,51.33
2022-11-12T16:18:45.002Z,51.31
2022-11-12T16:23:37.651Z,51.05
2022-11-12T16:28:30.563Z,50.99
2022-11-12T16:33:23.336Z,51.04
2022-11-12T16:38:15.975Z,51.07
2022-11-12T16:43:08.468Z,51.06
2022-11-12T16:48:01.565Z,50.89
2022-11-12T16:52:54.040Z,50.8
2022-11-12T16:57:46.818Z,50.86
2022-11-12T17:02:43.723Z,50.93
2022-11-12T17:07:32.227Z,50.88
2022-11-12T17:12:24.945Z,53.72
2022-11-12T17:17:17.848Z,50.52
2022-11-12T17:22:10.373Z,50.46
2022-11-12T17:27:03.134Z,50.1
2022-11-12T17:31:55.289Z,49.72
2022-11-12T17:36:47.818Z,49.77
2022-11-12T17:41:40.517Z,49.9
2022-11-12T17:46:33.228Z,49.99
2022-11-12T17:51:25.775Z,50.1
2022-11-12T17:56:18.367Z,50.18
2022-11-12T18:01:11.151Z,50.28
2022-11-12T18:06:03.875Z,50.41
2022-11-12T18:10:56.379Z,50.37
2022-11-12T18:15:48.944Z,50.58
2022-11-12T18:20:41.670Z,50.51
2022-11-12T18:30:26.978Z,50.53
2022-11-12T18:40:12.080Z,50.67
2022-11-12T18:49:57.297Z,50.65
2022-11-12T18:59:43.526Z,50.93
2022-11-12T19:04:35.103Z,51.02
2022-11-12T19:09:27.426Z,51.12
2022-11-12T19:14:20.015Z,51.17
2022-11-12T19:19:12.290Z,51.09
2022-11-12T19:24:05.056Z,50.92
2022-11-12T19:28:57.859Z,50.97
2022-11-12T19:33:50.699Z,51.3
2022-11-12T19:38:43.423Z,51.45
2022-11-12T19:43:35.990Z,51.57
2022-11-12T19:48:28.554Z,51.58
2022-11-12T19:53:20.783Z,51.73
2022-11-12T19:58:15.328Z,51.79
2022-11-12T20:03:07.746Z,51.76
2022-11-12T20:08:00.102Z,51.71
2022-11-12T20:12:52.763Z,51.65
2022-11-12T20:17:45.333Z,51.56
2022-11-12T20:22:37.978Z,51.58
2022-11-12T20:27:30.369Z,51.61
2022-11-12T20:32:22.511Z,51.65
2022-11-12T20:37:15.082Z,51.58
2022-11-12T20:42:07.911Z,51.58
2022-11-12T20:47:00.489Z,51.41
2022-11-12T20:51:53.228Z,51.13
2022-11-12T20:56:45.875Z,50.98
2022-11-12T21:01:38.648Z,51.12
2022-11-12T21:06:31.152Z,51.2
2022-11-12T21:11:23.717Z,51.23
2022-11-12T21:16:16.210Z,51.18
2022-11-12T21:21:08.917Z,51.17
2022-11-12T21:26:01.414Z,51.11
2022-11-12T21:30:53.912Z,51.08
2022-11-12T21:35:46.608Z,51.03
2022-11-12T21:40:39.305Z,51.05
2022-11-12T21:45:31.678Z,51.03
2022-11-12T21:50:24.400Z,51.08
2022-11-12T21:55:16.789Z,51.16
2022-11-12T22:00:39.498Z,51.14
2022-11-12T22:05:01.998Z,51.18
2022-11-12T22:09:56.875Z,51.16
2022-11-12T22:14:46.905Z,51.21
2022-11-12T22:19:39.750Z,51.21
2022-11-12T22:24:32.121Z,51.2
2022-11-12T22:29:24.717Z,51.22
2022-11-12T22:34:17.428Z,51.2
2022-11-12T22:39:10.217Z,51.27
2022-11-12T22:44:02.431Z,51.33
2022-11-12T22:48:54.971Z,51.41
2022-11-12T22:53:47.584Z,51.43
2022-11-12T23:03:27.837Z,51.46
2022-11-12T23:08:21.493Z,51.5
2022-11-12T23:13:13.957Z,51.47
2022-11-12T23:18:06.488Z,51.51
2022-11-12T23:22:59.168Z,51.5
2022-11-12T23:27:51.404Z,51.49
2022-11-12T23:32:43.961Z,51.56
2022-11-12T23:37:36.724Z,51.54
2022-11-12T23:42:29.343Z,51.59
2022-11-12T23:47:21.780Z,51.69
2022-11-12T23:57:06.859Z,51.73
